createdAt,value
2018-01-15T00:02:06.966Z,26.97
2018-01-15T00:04:36.527Z,28.10
2018-01-15T00:07:06.156Z,28.57
2018-01-15T00:09:35.790Z,29.57
2018-01-15T00:12:05.450Z,29.30
2018-01-15T00:14:36.177Z,32.07
2018-01-15T00:17:05.744Z,26.70
2018-01-15T00:19:35.288Z,27.67
2018-01-15T00:22:04.858Z,26.63
2018-01-15T00:27:45.479Z,36.83
2018-01-15T00:30:14.142Z,35.17
2018-01-15T00:32:43.808Z,21.27
2018-01-15T00:35:22.298Z,25.03
2018-01-15T00:37:52.182Z,26.30
2018-01-15T00:40:21.591Z,46.93
2018-01-15T00:43:05.278Z,33.47
2018-01-15T00:45:36.110Z,26.20
2018-01-15T00:51:15.577Z,22.03
2018-01-15T00:53:43.903Z,23.00
2018-01-15T00:59:10.486Z,23.83
2018-01-15T01:01:42.373Z,21.17
2018-01-15T01:04:11.062Z,19.70
2018-01-15T01:06:39.343Z,25.90
2018-01-15T01:09:08.943Z,24.37
2018-01-15T01:11:38.488Z,29.53
2018-01-15T01:14:10.271Z,36.10
2018-01-15T01:16:39.971Z,24.43
2018-01-15T01:22:19.138Z,24.23
2018-01-15T01:24:47.312Z,28.73
2018-01-15T01:27:24.127Z,28.47
2018-01-15T01:29:52.401Z,25.70
2018-01-15T01:32:20.714Z,23.73
2018-01-15T01:34:50.375Z,21.40
2018-01-15T01:37:18.573Z,22.00
2018-01-15T01:39:48.200Z,23.23
2018-01-15T01:42:16.594Z,20.90
2018-01-15T01:44:47.078Z,25.30
2018-01-15T01:47:15.270Z,19.87
2018-01-15T01:49:44.944Z,20.90
2018-01-15T01:52:14.452Z,24.33
2018-01-15T01:54:42.586Z,22.37
2018-01-15T01:57:10.898Z,18.60
2018-01-15T01:59:57.051Z,24.73
2018-01-15T02:02:25.704Z,32.17
2018-01-15T02:04:55.461Z,31.33
2018-01-15T02:07:23.751Z,21.48
2018-01-15T02:09:53.970Z,20.73
2018-01-15T02:12:22.180Z,19.70
2018-01-15T02:14:51.709Z,23.30
2018-01-15T02:17:20.012Z,25.70
2018-01-15T02:19:55.918Z,22.87
2018-01-15T02:22:25.564Z,21.20
2018-01-15T02:24:55.033Z,22.00
2018-01-15T02:27:23.776Z,26.33
2018-01-15T02:29:53.445Z,22.60
2018-01-15T02:32:30.998Z,22.17
2018-01-15T02:37:46.736Z,22.47
2018-01-15T02:40:19.063Z,26.90
2018-01-15T02:42:47.584Z,27.40
2018-01-15T02:45:17.206Z,22.47
2018-01-15T02:47:46.769Z,26.57
2018-01-15T02:50:15.309Z,21.77
2018-01-15T02:52:45.096Z,27.17
2018-01-15T02:55:14.775Z,27.07
2018-01-15T03:03:42.307Z,23.07
2018-01-15T03:09:05.950Z,29.03
2018-01-15T03:11:35.692Z,35.30
2018-01-15T03:14:05.348Z,27.73
2018-01-15T03:16:33.552Z,19.13
2018-01-15T03:21:38.706Z,20.10
2018-01-15T03:24:06.987Z,19.77
2018-01-15T03:26:35.517Z,21.17
2018-01-15T03:29:04.967Z,22.20
2018-01-15T03:31:33.574Z,22.93
2018-01-15T03:34:02.326Z,19.40
2018-01-15T03:36:32.141Z,21.50
2018-01-15T03:39:00.555Z,20.73
2018-01-15T03:41:29.672Z,20.47
2018-01-15T03:44:00.451Z,21.30
2018-01-15T03:46:28.696Z,23.10
2018-01-15T03:48:56.936Z,20.50
2018-01-15T03:51:26.765Z,21.27
2018-01-15T03:53:55.415Z,19.60
2018-01-15T03:56:25.003Z,21.20
2018-01-15T03:58:53.182Z,22.60
2018-01-15T04:01:21.866Z,21.13
2018-01-15T04:03:52.220Z,20.13
2018-01-15T04:06:22.123Z,19.30
2018-01-15T04:08:51.734Z,19.63
2018-01-15T04:11:19.882Z,17.90
2018-01-15T04:13:49.873Z,19.27
2018-01-15T04:16:19.673Z,20.00
2018-01-15T04:18:48.018Z,20.70
2018-01-15T04:21:16.342Z,21.33
2018-01-15T04:23:45.393Z,19.53
2018-01-15T04:26:13.641Z,19.57
2018-01-15T04:28:41.953Z,20.73
2018-01-15T04:31:10.979Z,21.40
2018-01-15T04:33:40.354Z,18.23
2018-01-15T04:36:08.669Z,22.97
2018-01-15T04:38:36.959Z,19.60
2018-01-15T04:41:05.232Z,21.43
2018-01-15T04:43:33.568Z,20.83
2018-01-15T04:46:03.054Z,20.63
2018-01-15T04:48:31.330Z,18.30
2018-01-15T04:51:01.209Z,17.43
2018-01-15T04:53:30.807Z,22.00
2018-01-15T04:55:59.057Z,19.43
2018-01-15T04:58:27.394Z,19.10
2018-01-15T05:00:55.644Z,21.10
2018-01-15T05:03:24.914Z,19.60
2018-01-15T05:05:53.345Z,18.73
2018-01-15T05:08:22.405Z,18.20
2018-01-15T05:10:51.452Z,18.97
2018-01-15T05:13:19.901Z,17.23
2018-01-15T05:15:48.665Z,18.90
2018-01-15T05:18:17.591Z,21.90
2018-01-15T05:20:46.002Z,19.60
2018-01-15T05:23:15.737Z,18.03
2018-01-15T05:25:43.874Z,20.93
2018-01-15T05:28:12.310Z,19.37
2018-01-15T05:30:40.565Z,20.90
2018-01-15T05:33:08.846Z,19.90
2018-01-15T05:35:37.247Z,18.30
2018-01-15T05:38:05.539Z,19.23
2018-01-15T05:40:35.149Z,18.80
2018-01-15T05:43:03.371Z,20.37
2018-01-15T05:45:32.682Z,17.13
2018-01-15T05:48:02.335Z,22.97
2018-01-15T05:50:31.974Z,20.20
2018-01-15T05:53:01.150Z,20.03
2018-01-15T05:55:31.121Z,19.93
2018-01-15T05:57:59.378Z,18.40
2018-01-15T06:00:27.883Z,20.87
2018-01-15T06:02:56.202Z,23.20
2018-01-15T06:05:24.941Z,46.00
2018-01-15T06:07:54.782Z,23.30
2018-01-15T06:10:23.966Z,19.70
2018-01-15T06:12:54.968Z,19.70
2018-01-15T06:15:24.182Z,18.07
2018-01-15T06:17:52.527Z,19.73
2018-01-15T06:20:21.196Z,16.77
2018-01-15T06:22:49.587Z,23.83
2018-01-15T06:25:18.027Z,21.07
2018-01-15T06:27:47.337Z,20.77
2018-01-15T06:30:15.633Z,22.07
2018-01-15T06:32:43.922Z,29.93
2018-01-15T06:35:12.177Z,20.17
2018-01-15T06:37:40.465Z,24.33
2018-01-15T06:40:09.489Z,20.93
2018-01-15T06:42:38.538Z,19.33
2018-01-15T06:45:06.905Z,19.93
2018-01-15T06:47:35.953Z,18.50
2018-01-15T06:50:05.708Z,21.23
2018-01-15T06:52:35.382Z,21.60
2018-01-15T06:55:03.970Z,24.40
2018-01-15T06:57:32.888Z,20.10
2018-01-15T07:00:01.181Z,18.30
2018-01-15T07:02:29.462Z,20.07
2018-01-15T07:04:57.712Z,23.00
2018-01-15T07:07:26.783Z,25.00
2018-01-15T07:09:55.432Z,20.77
2018-01-15T07:12:25.080Z,19.50
2018-01-15T07:14:54.600Z,20.83
2018-01-15T07:17:23.409Z,22.20
2018-01-15T07:19:52.085Z,26.37
2018-01-15T07:22:20.725Z,22.17
2018-01-15T07:24:49.475Z,17.83
2018-01-15T07:27:18.519Z,21.03
2018-01-15T07:29:46.935Z,21.23
2018-01-15T07:32:15.968Z,25.27
2018-01-15T07:34:44.362Z,23.03
2018-01-15T07:37:13.925Z,24.60
2018-01-15T07:39:43.283Z,22.17
2018-01-15T07:42:12.345Z,22.27
2018-01-15T07:44:41.468Z,21.37
2018-01-15T07:47:10.493Z,22.63
2018-01-15T07:49:38.772Z,21.37
2018-01-15T07:52:07.073Z,20.57
2018-01-15T07:54:35.386Z,20.67
2018-01-15T07:57:03.706Z,18.30
2018-01-15T07:59:32.046Z,17.40
2018-01-15T08:02:01.059Z,22.43
2018-01-15T08:04:29.315Z,18.97
2018-01-15T08:06:57.620Z,19.70
2018-01-15T08:09:26.049Z,20.67
2018-01-15T08:11:55.804Z,25.53
2018-01-15T08:14:24.084Z,22.63
2018-01-15T08:16:52.379Z,21.03
2018-01-15T08:19:20.636Z,22.50
2018-01-15T08:21:48.910Z,26.03
2018-01-15T08:24:17.277Z,21.67
2018-01-15T08:26:46.389Z,19.07
2018-01-15T08:29:15.184Z,20.87
2018-01-15T08:31:43.433Z,23.73
2018-01-15T08:34:11.699Z,23.37
2018-01-15T08:36:40.033Z,23.97
2018-01-15T08:39:09.673Z,21.33
2018-01-15T08:41:37.881Z,47.60
2018-01-15T08:44:06.209Z,36.93
2018-01-15T08:46:34.519Z,23.10
2018-01-15T08:49:02.790Z,20.10
2018-01-15T08:51:31.133Z,22.60
2018-01-15T08:53:59.464Z,25.47
2018-01-15T08:56:27.737Z,23.83
2018-01-15T08:58:56.033Z,23.70
2018-01-15T09:01:24.285Z,22.00
2018-01-15T09:03:52.553Z,21.57
2018-01-15T09:06:20.895Z,19.93
2018-01-15T09:08:49.147Z,23.53
2018-01-15T09:11:17.410Z,23.10
2018-01-15T09:13:46.969Z,25.77
2018-01-15T09:16:15.252Z,26.40
2018-01-15T09:18:43.510Z,23.17
2018-01-15T09:21:11.868Z,22.60
2018-01-15T09:23:41.571Z,20.40
2018-01-15T09:26:09.751Z,26.70
2018-01-15T09:28:38.067Z,22.60
2018-01-15T09:31:06.698Z,22.40
2018-01-15T09:33:35.376Z,24.30
2018-01-15T09:36:03.707Z,22.57
2018-01-15T09:38:32.077Z,20.27
2018-01-15T09:41:00.330Z,21.57
2018-01-15T09:43:29.962Z,23.50
2018-01-15T09:45:58.336Z,23.23
2018-01-15T09:48:26.627Z,21.90
2018-01-15T09:50:56.126Z,22.57
2018-01-15T09:53:24.531Z,22.10
2018-01-15T09:55:52.840Z,22.90
2018-01-15T09:58:21.629Z,22.50
2018-01-15T10:00:51.228Z,24.80
2018-01-15T10:03:19.354Z,23.70
2018-01-15T10:05:48.429Z,24.00
2018-01-15T10:08:16.687Z,22.20
2018-01-15T10:10:45.046Z,23.23
2018-01-15T10:13:13.382Z,21.43
2018-01-15T10:15:41.672Z,23.83
2018-01-15T10:18:10.352Z,22.97
2018-01-15T10:20:39.111Z,19.87
2018-01-15T10:23:08.153Z,19.33
2018-01-15T10:25:36.931Z,20.80
2018-01-15T10:28:06.600Z,25.07
2018-01-15T10:30:34.825Z,27.80
2018-01-15T10:33:03.091Z,22.50
2018-01-15T10:35:32.975Z,22.00
2018-01-15T10:38:01.193Z,20.20
2018-01-15T10:40:30.241Z,22.40
2018-01-15T10:42:58.569Z,22.50
2018-01-15T10:45:26.828Z,20.63
2018-01-15T10:47:55.873Z,17.47
2018-01-15T10:50:24.970Z,17.10
2018-01-15T10:52:54.061Z,18.63
2018-01-15T10:55:23.909Z,19.37
2018-01-15T10:57:52.188Z,25.90
2018-01-15T11:00:27.675Z,18.80
2018-01-15T11:02:55.994Z,17.20
2018-01-15T11:05:24.358Z,18.73
2018-01-15T11:07:53.748Z,16.63
2018-01-15T11:10:23.424Z,14.00
2018-01-15T11:12:52.916Z,15.83
2018-01-15T11:15:21.840Z,16.00
2018-01-15T11:17:50.124Z,15.63
2018-01-15T11:20:19.147Z,14.27
2018-01-15T11:22:47.453Z,15.27
2018-01-15T11:25:17.108Z,14.70
2018-01-15T11:27:45.260Z,12.77
2018-01-15T11:30:14.314Z,14.90
2018-01-15T11:32:42.617Z,14.47
2018-01-15T11:35:10.868Z,15.10
2018-01-15T11:37:39.139Z,12.40
2018-01-15T11:40:07.534Z,15.47
2018-01-15T11:42:35.814Z,13.53
2018-01-15T11:45:05.235Z,14.07
2018-01-15T11:47:34.354Z,12.87
2018-01-15T11:50:03.427Z,15.20
2018-01-15T11:52:31.725Z,14.70
2018-01-15T11:55:00.028Z,14.90
2018-01-15T11:57:28.609Z,16.20
2018-01-15T11:59:56.866Z,15.67
2018-01-15T12:02:26.812Z,14.63
2018-01-15T12:04:55.130Z,14.37
2018-01-15T12:07:24.964Z,26.23
2018-01-15T12:09:53.133Z,28.00
2018-01-15T12:12:21.419Z,22.07
2018-01-15T12:14:49.738Z,20.07
2018-01-15T12:17:18.781Z,19.00
2018-01-15T12:19:47.045Z,19.07
2018-01-15T12:22:16.478Z,18.40
2018-01-15T12:24:45.637Z,31.43
2018-01-15T12:27:14.852Z,54.07
2018-01-15T12:29:43.114Z,26.70
2018-01-15T12:32:11.622Z,17.50
2018-01-15T12:34:39.883Z,21.17
2018-01-15T12:37:09.632Z,16.30
2018-01-15T12:39:39.421Z,48.87
2018-01-15T12:42:07.941Z,28.17
2018-01-15T12:44:49.437Z,20.30
2018-01-15T12:47:17.726Z,23.90
2018-01-15T12:49:46.913Z,20.93
2018-01-15T12:52:15.443Z,19.70
2018-01-15T12:54:43.980Z,18.97
2018-01-15T12:57:12.353Z,21.80
2018-01-15T12:59:40.729Z,17.97
2018-01-15T13:02:09.813Z,16.00
2018-01-15T13:04:39.409Z,16.87
2018-01-15T13:07:24.735Z,16.97
2018-01-15T13:09:53.726Z,14.40
2018-01-15T13:12:21.987Z,13.10
2018-01-15T13:14:52.317Z,13.40
2018-01-15T13:17:21.335Z,12.63
2018-01-15T13:22:24.377Z,9.93
2018-01-15T13:24:54.138Z,10.67
2018-01-15T13:27:27.604Z,11.90
2018-01-15T13:29:56.845Z,12.70
2018-01-15T13:32:25.102Z,10.70
2018-01-15T13:34:53.401Z,10.53
2018-01-15T13:37:21.658Z,10.70
2018-01-15T13:39:50.491Z,13.83
2018-01-15T13:42:18.778Z,11.40
2018-01-15T13:44:47.028Z,11.50
2018-01-15T13:47:16.778Z,12.60
2018-01-15T13:49:45.827Z,11.23
2018-01-15T13:52:15.239Z,11.13
2018-01-15T13:54:43.559Z,11.70
2018-01-15T13:57:12.671Z,13.03
2018-01-15T13:59:42.052Z,11.30
2018-01-15T14:02:11.657Z,11.40
2018-01-15T14:04:39.918Z,11.70
2018-01-15T14:07:08.933Z,11.87
2018-01-15T14:09:49.699Z,9.80
2018-01-15T14:12:17.944Z,10.03
2018-01-15T14:14:46.590Z,8.03
2018-01-15T14:17:14.864Z,9.43
2018-01-15T14:19:44.469Z,8.80
2018-01-15T14:22:13.340Z,9.63
2018-01-15T14:24:41.600Z,9.67
2018-01-15T14:27:09.852Z,9.40
2018-01-15T14:29:38.505Z,8.37
2018-01-15T14:32:06.805Z,8.40
2018-01-15T14:34:35.866Z,8.50
2018-01-15T14:37:05.297Z,7.60
2018-01-15T14:39:35.257Z,9.27
2018-01-15T14:42:05.190Z,8.40
2018-01-15T14:44:33.428Z,8.13
2018-01-15T14:47:01.810Z,6.40
2018-01-15T14:49:30.237Z,7.80
2018-01-15T14:51:59.247Z,7.83
2018-01-15T14:54:28.862Z,7.77
2018-01-15T14:56:56.989Z,7.50
2018-01-15T14:59:27.290Z,7.70
2018-01-15T15:01:56.333Z,8.43
2018-01-15T15:04:25.958Z,7.30
2018-01-15T15:06:55.449Z,8.50
2018-01-15T15:09:25.693Z,7.30
2018-01-15T15:11:54.361Z,6.90
2018-01-15T15:14:22.606Z,6.77
2018-01-15T15:16:51.291Z,7.23
2018-01-15T15:19:20.416Z,7.90
2018-01-15T15:21:49.053Z,8.63
2018-01-15T15:24:17.321Z,9.33
2018-01-15T15:26:45.557Z,9.23
2018-01-15T15:29:13.820Z,10.97
2018-01-15T15:31:43.667Z,10.27
2018-01-15T15:34:12.667Z,9.47
2018-01-15T15:36:42.040Z,11.53
2018-01-15T15:39:11.464Z,11.10
2018-01-15T15:41:39.698Z,9.57
2018-01-15T15:44:08.024Z,11.87
2018-01-15T15:46:36.332Z,10.03
2018-01-15T15:49:06.089Z,9.60
2018-01-15T15:51:35.703Z,8.77
2018-01-15T15:54:04.631Z,9.63
2018-01-15T15:56:33.654Z,9.80
2018-01-15T15:59:02.670Z,6.60
2018-01-15T16:01:32.505Z,6.67
2018-01-15T16:04:01.504Z,6.60
2018-01-15T16:06:29.729Z,5.23
2018-01-15T16:08:59.132Z,5.30
2018-01-15T16:11:28.708Z,4.97
2018-01-15T16:13:57.584Z,8.03
2018-01-15T16:16:25.880Z,5.70
2018-01-15T16:18:54.112Z,5.90
2018-01-15T16:21:23.117Z,7.70
2018-01-15T16:23:51.776Z,6.03
2018-01-15T16:26:21.362Z,6.77
2018-01-15T16:28:49.476Z,7.00
2018-01-15T16:31:19.244Z,6.03
2018-01-15T16:33:47.480Z,6.53
2018-01-15T16:36:17.222Z,6.10
2018-01-15T16:38:46.997Z,6.70
2018-01-15T16:41:15.221Z,5.73
2018-01-15T16:43:43.464Z,5.10
2018-01-15T16:46:13.712Z,4.47
2018-01-15T16:48:43.072Z,6.27
2018-01-15T16:51:11.301Z,4.37
2018-01-15T16:53:39.961Z,4.70
2018-01-15T16:56:09.693Z,4.37
2018-01-15T16:58:39.460Z,4.23
2018-01-15T17:01:08.113Z,4.80
2018-01-15T17:03:37.743Z,6.00
2018-01-15T17:06:06.616Z,5.17
2018-01-15T17:08:34.893Z,5.87
2018-01-15T17:11:04.514Z,8.43
2018-01-15T17:13:33.775Z,5.40
2018-01-15T17:16:02.031Z,5.73
2018-01-15T17:18:30.257Z,4.40
2018-01-15T17:20:59.837Z,4.03
2018-01-15T17:23:28.579Z,5.23
2018-01-15T17:25:56.813Z,5.13
2018-01-15T17:28:25.045Z,5.60
2018-01-15T17:30:53.316Z,4.47
2018-01-15T17:33:21.940Z,4.43
2018-01-15T17:35:51.301Z,4.13
2018-01-15T17:38:19.560Z,3.80
2018-01-15T17:40:47.803Z,3.20
2018-01-15T17:43:17.397Z,3.90
2018-01-15T17:45:46.304Z,4.53
2018-01-15T17:48:14.584Z,4.20
2018-01-15T17:50:43.595Z,4.37
2018-01-15T17:53:11.861Z,3.77
2018-01-15T17:55:40.096Z,4.43
2018-01-15T17:58:08.339Z,18.87
2018-01-15T18:00:36.620Z,3.00
2018-01-15T18:03:06.009Z,3.23
2018-01-15T18:05:34.232Z,2.87
2018-01-15T18:08:02.501Z,2.70
2018-01-15T18:10:30.730Z,3.50
2018-01-15T18:12:59.347Z,2.77
2018-01-15T18:15:27.616Z,3.10
2018-01-15T18:17:55.825Z,2.73
2018-01-15T18:20:25.408Z,2.30
2018-01-15T18:22:54.919Z,2.40
2018-01-15T18:25:24.160Z,2.57
2018-01-15T18:27:53.159Z,3.10
2018-01-15T18:30:21.429Z,2.53
2018-01-15T18:32:49.648Z,1.50
2018-01-15T18:35:19.241Z,1.13
2018-01-15T18:37:48.224Z,0.80
2018-01-15T18:40:17.956Z,1.13
2018-01-15T18:42:47.536Z,0.97
2018-01-15T18:45:16.085Z,0.73
2018-01-15T18:47:44.329Z,1.23
2018-01-15T18:50:12.615Z,0.90
2018-01-15T18:52:41.472Z,1.20
2018-01-15T18:55:10.854Z,0.83
2018-01-15T18:57:39.112Z,0.70
2018-01-15T19:00:07.489Z,0.80
2018-01-15T19:02:37.291Z,0.70
2018-01-15T19:05:07.003Z,1.13
2018-01-15T19:07:35.916Z,1.23
2018-01-15T19:10:05.277Z,1.20
2018-01-15T19:12:34.668Z,1.73
2018-01-15T19:15:03.289Z,1.60
2018-01-15T19:17:32.876Z,1.20
2018-01-15T19:20:01.008Z,1.10
2018-01-15T19:22:29.629Z,1.20
2018-01-15T19:24:58.896Z,1.03
2018-01-15T19:27:27.884Z,1.60
2018-01-15T19:29:56.108Z,1.50
2018-01-15T19:32:25.152Z,1.03
2018-01-15T19:34:58.510Z,1.30
2018-01-15T19:37:30.107Z,0.77
2018-01-15T19:39:59.104Z,0.87
2018-01-15T19:42:28.731Z,0.73
2018-01-15T19:45:02.995Z,1.10
2018-01-15T19:47:37.717Z,1.30
2018-01-15T19:50:11.809Z,0.67
2018-01-15T19:52:46.628Z,0.80
2018-01-15T19:55:20.984Z,0.97
2018-01-15T19:57:56.354Z,0.83
2018-01-15T20:00:31.465Z,1.13
2018-01-15T20:03:05.354Z,0.80
2018-01-15T20:05:40.815Z,1.13
2018-01-15T20:08:15.280Z,1.00
2018-01-15T20:10:49.631Z,1.10
2018-01-15T20:13:18.278Z,0.70
2018-01-15T20:15:46.488Z,1.00
2018-01-15T20:18:14.758Z,8.87
2018-01-15T20:20:43.441Z,1.47
2018-01-15T20:23:11.707Z,1.30
2018-01-15T20:25:41.150Z,1.00
2018-01-15T20:28:09.456Z,1.30
2018-01-15T20:30:39.086Z,0.73
2018-01-15T20:33:08.752Z,1.30
2018-01-15T20:35:38.384Z,1.10
2018-01-15T20:38:06.937Z,1.00
2018-01-15T20:40:35.188Z,1.13
2018-01-15T20:43:03.455Z,0.63
2018-01-15T20:45:31.729Z,1.10
2018-01-15T20:48:00.034Z,1.07
2018-01-15T20:50:29.664Z,1.30
2018-01-15T20:52:57.770Z,1.30
2018-01-15T20:55:26.070Z,1.60
2018-01-15T20:57:55.688Z,1.53
2018-01-15T21:00:24.545Z,1.50
2018-01-15T21:02:52.868Z,1.37
2018-01-15T21:05:21.131Z,1.10
2018-01-15T21:07:49.382Z,1.50
2018-01-15T21:10:17.686Z,1.17
2018-01-15T21:12:47.407Z,1.57
2018-01-15T21:15:15.671Z,2.00
2018-01-15T21:17:44.031Z,2.33
2018-01-15T21:20:13.065Z,2.37
2018-01-15T21:22:42.693Z,1.70
2018-01-15T21:25:11.818Z,2.40
2018-01-15T21:27:41.475Z,2.40
2018-01-15T21:30:09.618Z,2.33
2018-01-15T21:32:37.937Z,2.80
2018-01-15T21:35:07.655Z,2.40
2018-01-15T21:37:36.690Z,3.40
2018-01-15T21:40:06.082Z,3.17
2018-01-15T21:42:34.390Z,3.30
2018-01-15T21:45:02.607Z,3.83
2018-01-15T21:47:30.936Z,4.07
2018-01-15T21:50:00.548Z,5.10
2018-01-15T21:52:29.421Z,5.63
2018-01-15T21:54:59.097Z,56.70
2018-01-15T21:57:28.550Z,6.93
2018-01-15T21:59:58.149Z,6.63
2018-01-15T22:02:27.125Z,7.67
2018-01-15T22:04:55.386Z,7.40
2018-01-15T22:07:23.600Z,7.77
2018-01-15T22:09:53.406Z,7.30
2018-01-15T22:12:21.625Z,7.60
2018-01-15T22:14:50.655Z,8.23
2018-01-15T22:17:19.733Z,9.30
2018-01-15T22:19:47.936Z,8.20
2018-01-15T22:22:16.207Z,8.73
2018-01-15T22:24:44.534Z,8.70
2018-01-15T22:27:12.766Z,10.30
2018-01-15T22:29:42.601Z,9.23
2018-01-15T22:32:10.893Z,8.70
2018-01-15T22:34:39.137Z,8.70
2018-01-15T22:37:07.357Z,7.80
2018-01-15T22:39:35.741Z,7.53
2018-01-15T22:42:04.727Z,7.13
2018-01-15T22:44:34.303Z,7.40
2018-01-15T22:47:03.200Z,6.00
2018-01-15T22:49:31.427Z,7.40
2018-01-15T22:51:59.692Z,6.37
2018-01-15T22:54:29.092Z,6.30
2018-01-15T22:56:57.328Z,6.23
2018-01-15T22:59:25.552Z,7.13
2018-01-15T23:01:53.837Z,6.73
2018-01-15T23:04:22.067Z,6.30
2018-01-15T23:06:50.288Z,6.67
2018-01-15T23:09:18.564Z,6.27
2018-01-15T23:11:46.794Z,6.83
2018-01-15T23:14:15.021Z,6.03
2018-01-15T23:16:43.289Z,6.10
2018-01-15T23:19:11.520Z,6.70
2018-01-15T23:21:41.111Z,7.50
2018-01-15T23:24:10.756Z,7.17
2018-01-15T23:26:38.984Z,8.57
2018-01-15T23:29:08.721Z,9.27
2018-01-15T23:31:37.557Z,8.00
2018-01-15T23:34:07.156Z,10.00
2018-01-15T23:36:35.292Z,8.40
2018-01-15T23:39:04.941Z,9.13
2018-01-15T23:41:34.226Z,9.20
2018-01-15T23:44:02.482Z,10.10
2018-01-15T23:46:31.970Z,8.87
2018-01-15T23:49:01.578Z,9.43
2018-01-15T23:51:30.449Z,10.07
2018-01-15T23:53:58.713Z,9.53
2018-01-15T23:56:26.945Z,9.13
2018-01-15T23:58:56.318Z,10.50
